createdAt,value
2018-05-06T00:02:14.444Z,66.40
2018-05-06T00:04:42.842Z,67.15
2018-05-06T00:07:12.001Z,68.23
2018-05-06T00:09:40.435Z,67.83
2018-05-06T00:12:08.853Z,67.59
2018-05-06T00:14:37.230Z,68.23
2018-05-06T00:17:05.650Z,68.88
2018-05-06T00:19:34.083Z,69.94
2018-05-06T00:22:02.478Z,69.94
2018-05-06T00:24:30.834Z,70.50
2018-05-06T00:27:00.018Z,70.78
2018-05-06T00:29:28.410Z,69.90
2018-05-06T00:31:56.810Z,70.67
2018-05-06T00:34:26.028Z,71.46
2018-05-06T00:36:54.448Z,72.11
2018-05-06T00:39:22.894Z,72.39
2018-05-06T00:41:52.038Z,72.75
2018-05-06T00:44:20.544Z,73.06
2018-05-06T00:46:48.915Z,73.44
2018-05-06T00:49:17.298Z,73.12
2018-05-06T00:51:45.696Z,73.51
2018-05-06T00:54:31.633Z,74.32
2018-05-06T00:57:00.006Z,74.58
2018-05-06T00:59:28.565Z,74.95
2018-05-06T01:01:57.704Z,75.35
2018-05-06T01:04:26.076Z,75.06
2018-05-06T01:06:54.473Z,75.32
2018-05-06T01:09:22.894Z,74.74
2018-05-06T01:11:51.297Z,75.41
2018-05-06T01:14:20.489Z,75.47
2018-05-06T01:16:49.650Z,75.77
2018-05-06T01:19:18.059Z,76.18
2018-05-06T01:21:46.416Z,76.67
2018-05-06T01:24:14.790Z,77.07
2018-05-06T01:26:43.166Z,77.17
2018-05-06T01:29:11.549Z,77.45
2018-05-06T01:31:39.937Z,77.99
2018-05-06T01:34:08.306Z,77.97
2018-05-06T01:36:36.688Z,78.74
2018-05-06T01:39:05.041Z,78.85
2018-05-06T01:41:34.220Z,78.96
2018-05-06T01:44:02.656Z,78.73
2018-05-06T01:46:31.037Z,78.90
2018-05-06T01:48:59.417Z,79.07
2018-05-06T01:51:27.770Z,79.21
2018-05-06T01:53:56.914Z,79.31
2018-05-06T01:56:25.290Z,79.78
2018-05-06T01:58:53.710Z,79.94
2018-05-06T02:01:22.087Z,80.45
2018-05-06T02:03:50.534Z,81.17
2018-05-06T02:06:18.894Z,81.28
2018-05-06T02:08:48.037Z,81.30
2018-05-06T02:11:16.459Z,81.82
2018-05-06T02:13:44.838Z,81.90
2018-05-06T02:16:13.221Z,82.28
2018-05-06T02:18:41.683Z,82.52
2018-05-06T02:21:10.053Z,82.84
2018-05-06T02:23:38.482Z,83.05
2018-05-06T02:26:06.856Z,83.42
2018-05-06T02:28:35.306Z,83.44
2018-05-06T02:31:03.688Z,83.87
2018-05-06T02:33:32.076Z,84.49
2018-05-06T02:36:00.450Z,84.75
2018-05-06T02:38:28.815Z,84.72
2018-05-06T02:40:57.178Z,84.76
2018-05-06T02:43:26.326Z,84.66
2018-05-06T02:45:54.718Z,84.92
2018-05-06T02:48:23.119Z,85.23
2018-05-06T02:50:51.510Z,85.46
2018-05-06T02:53:19.902Z,85.60
2018-05-06T02:55:49.036Z,85.52
2018-05-06T02:58:17.480Z,85.02
2018-05-06T03:00:46.632Z,85.09
2018-05-06T03:03:14.999Z,85.44
2018-05-06T03:05:43.422Z,85.66
2018-05-06T03:08:11.870Z,85.85
2018-05-06T03:10:40.243Z,85.80
2018-05-06T03:13:08.626Z,86.01
2018-05-06T03:15:37.091Z,86.12
2018-05-06T03:18:06.255Z,86.40
2018-05-06T03:20:34.614Z,86.40
2018-05-06T03:23:02.999Z,86.54
2018-05-06T03:25:31.381Z,86.56
2018-05-06T03:27:59.762Z,87.14
2018-05-06T03:30:28.142Z,87.15
2018-05-06T03:32:56.514Z,87.01
2018-05-06T03:35:24.873Z,87.05
2018-05-06T03:37:54.006Z,87.07
2018-05-06T03:40:22.393Z,87.20
2018-05-06T03:42:50.781Z,87.23
2018-05-06T03:45:19.146Z,87.36
2018-05-06T03:47:47.544Z,87.60
2018-05-06T03:50:16.045Z,87.61
2018-05-06T03:52:45.277Z,87.78
2018-05-06T03:55:13.666Z,87.76
2018-05-06T03:57:59.689Z,87.70
2018-05-06T04:00:50.215Z,87.45
2018-05-06T04:03:18.593Z,87.47
2018-05-06T04:05:47.038Z,87.50
2018-05-06T04:08:16.219Z,87.69
2018-05-06T04:10:45.389Z,87.74
2018-05-06T04:13:13.782Z,87.73
2018-05-06T04:15:42.144Z,87.69
2018-05-06T04:18:10.537Z,87.65
2018-05-06T04:20:38.910Z,87.62
2018-05-06T04:23:07.288Z,87.65
2018-05-06T04:25:35.682Z,87.74
2018-05-06T04:28:04.817Z,87.86
2018-05-06T04:30:33.965Z,88.12
2018-05-06T04:33:02.313Z,87.98
2018-05-06T04:35:38.585Z,88.07
2018-05-06T04:38:06.995Z,87.93
2018-05-06T04:40:35.391Z,87.88
2018-05-06T04:43:03.865Z,87.91
2018-05-06T04:45:32.250Z,87.78
2018-05-06T04:48:01.411Z,87.74
2018-05-06T04:50:29.798Z,87.74
2018-05-06T04:52:58.193Z,87.98
2018-05-06T04:55:26.594Z,87.93
2018-05-06T04:57:55.105Z,87.56
2018-05-06T05:00:23.492Z,87.56
2018-05-06T05:02:51.915Z,87.74
2018-05-06T05:05:20.302Z,87.58
2018-05-06T05:07:48.673Z,87.31
2018-05-06T05:10:17.053Z,87.54
2018-05-06T05:12:46.186Z,87.01
2018-05-06T05:15:14.558Z,86.08
2018-05-06T05:17:43.009Z,85.11
2018-05-06T05:20:12.174Z,81.61
2018-05-06T05:22:40.557Z,79.09
2018-05-06T05:25:08.938Z,75.44
2018-05-06T05:27:37.310Z,73.80
2018-05-06T05:30:05.704Z,72.38
2018-05-06T05:32:34.084Z,70.59
2018-05-06T05:35:02.466Z,67.40
2018-05-06T05:37:30.851Z,67.84
2018-05-06T05:39:59.252Z,67.66
2018-05-06T05:42:27.711Z,66.04
2018-05-06T05:44:56.104Z,64.69
2018-05-06T05:47:24.480Z,64.94
2018-05-06T05:49:52.884Z,61.86
2018-05-06T05:52:21.326Z,60.84
2018-05-06T05:54:49.746Z,60.56
2018-05-06T05:57:20.061Z,56.60
2018-05-06T05:59:48.465Z,60.40
2018-05-06T06:02:16.885Z,54.26
2018-05-06T06:04:45.262Z,55.17
2018-05-06T06:07:13.638Z,54.43
2018-05-06T06:09:42.811Z,52.14
2018-05-06T06:12:11.206Z,52.75
2018-05-06T06:14:40.568Z,50.92
2018-05-06T06:17:09.346Z,51.15
2018-05-06T06:19:43.490Z,52.00
2018-05-06T06:22:12.923Z,48.59
2018-05-06T06:24:42.379Z,48.09
2018-05-06T06:27:10.792Z,50.71
2018-05-06T06:29:39.177Z,47.79
2018-05-06T06:32:07.541Z,47.93
2018-05-06T06:34:36.039Z,45.90
2018-05-06T06:37:04.429Z,45.72
2018-05-06T06:39:32.868Z,46.37
2018-05-06T06:42:11.713Z,42.93
2018-05-06T06:44:41.215Z,42.58
2018-05-06T06:47:09.865Z,41.90
2018-05-06T06:49:39.375Z,40.44
2018-05-06T06:52:07.756Z,41.44
2018-05-06T06:54:40.759Z,40.17
2018-05-06T06:57:10.921Z,39.62
2018-05-06T06:59:39.345Z,39.64
2018-05-06T07:02:12.815Z,39.63
2018-05-06T07:04:41.215Z,38.44
2018-05-06T07:07:09.627Z,37.17
2018-05-06T07:09:40.699Z,36.96
2018-05-06T07:12:09.101Z,38.42
2018-05-06T07:14:39.439Z,34.51
2018-05-06T07:17:17.368Z,34.85
2018-05-06T07:19:46.707Z,34.12
2018-05-06T07:22:15.090Z,35.93
2018-05-06T07:24:43.526Z,33.49
2018-05-06T07:27:11.929Z,32.73
2018-05-06T07:29:40.322Z,30.05
2018-05-06T07:32:09.505Z,31.24
2018-05-06T07:34:38.009Z,31.48
2018-05-06T07:37:07.274Z,29.67
2018-05-06T07:39:36.518Z,30.77
2018-05-06T07:42:07.671Z,28.91
2018-05-06T07:44:36.112Z,28.99
2018-05-06T07:47:04.513Z,26.93
2018-05-06T07:49:33.016Z,26.98
2018-05-06T07:52:01.365Z,26.03
2018-05-06T07:54:30.767Z,27.56
2018-05-06T07:56:59.954Z,26.49
2018-05-06T07:59:28.346Z,28.38
2018-05-06T08:01:59.360Z,26.52
2018-05-06T08:04:27.757Z,24.89
2018-05-06T08:06:56.227Z,25.84
2018-05-06T08:09:24.607Z,26.00
2018-05-06T08:11:52.978Z,27.26
2018-05-06T08:14:21.375Z,26.80
2018-05-06T08:16:49.783Z,24.81
2018-05-06T08:19:24.713Z,25.69
2018-05-06T08:21:53.204Z,24.11
2018-05-06T08:24:21.678Z,24.35
2018-05-06T08:26:50.115Z,24.98
2018-05-06T08:29:19.309Z,25.56
2018-05-06T08:31:48.441Z,23.56
2018-05-06T08:34:16.834Z,24.60
2018-05-06T08:36:45.240Z,24.41
2018-05-06T08:39:13.670Z,24.70
2018-05-06T08:41:42.833Z,25.00
2018-05-06T08:44:11.246Z,22.34
2018-05-06T08:46:39.642Z,24.44
2018-05-06T08:49:09.371Z,24.01
2018-05-06T08:51:37.772Z,24.65
2018-05-06T08:54:06.149Z,24.75
2018-05-06T08:56:34.534Z,23.50
2018-05-06T08:59:02.910Z,25.93
2018-05-06T09:01:31.364Z,23.82
2018-05-06T09:04:00.529Z,22.55
2018-05-06T09:06:29.688Z,23.06
2018-05-06T09:08:58.383Z,24.19
2018-05-06T09:11:26.803Z,22.10
2018-05-06T09:13:55.206Z,22.31
2018-05-06T09:16:23.666Z,22.97
2018-05-06T09:18:52.090Z,22.63
2018-05-06T09:21:20.518Z,23.48
2018-05-06T09:23:49.039Z,24.75
2018-05-06T09:26:17.448Z,22.75
2018-05-06T09:28:46.657Z,23.99
2018-05-06T09:31:15.801Z,20.44
2018-05-06T09:33:44.221Z,22.99
2018-05-06T09:36:12.588Z,21.06
2018-05-06T09:38:41.772Z,21.96
2018-05-06T09:41:10.917Z,23.63
2018-05-06T09:43:40.682Z,23.22
2018-05-06T09:46:09.098Z,21.02
2018-05-06T09:48:37.540Z,22.20
2018-05-06T09:51:05.987Z,21.42
2018-05-06T09:53:35.154Z,22.16
2018-05-06T09:56:03.623Z,21.66
2018-05-06T09:58:32.032Z,22.36
2018-05-06T10:01:00.410Z,21.91
2018-05-06T10:03:28.779Z,20.94
2018-05-06T10:05:57.150Z,20.64
2018-05-06T10:08:25.693Z,20.47
2018-05-06T10:10:54.842Z,19.42
2018-05-06T10:13:23.230Z,20.32
2018-05-06T10:15:51.687Z,21.88
2018-05-06T10:18:20.050Z,19.85
2018-05-06T10:20:49.206Z,21.50
2018-05-06T10:23:17.668Z,21.05
2018-05-06T10:25:46.143Z,20.60
2018-05-06T10:28:14.490Z,20.71
2018-05-06T10:30:43.633Z,19.18
2018-05-06T10:33:12.030Z,20.48
2018-05-06T10:35:40.420Z,20.69
2018-05-06T10:38:08.821Z,20.39
2018-05-06T10:40:37.238Z,20.81
2018-05-06T10:43:06.386Z,20.13
2018-05-06T10:45:34.810Z,21.14
2018-05-06T10:48:04.021Z,20.40
2018-05-06T10:50:33.201Z,20.92
2018-05-06T10:53:01.584Z,23.34
2018-05-06T10:55:29.966Z,20.79
2018-05-06T10:57:58.412Z,20.77
2018-05-06T11:00:26.734Z,19.50
2018-05-06T11:02:55.147Z,22.86
2018-05-06T11:05:24.294Z,23.06
2018-05-06T11:07:52.746Z,19.68
2018-05-06T11:10:21.194Z,18.93
2018-05-06T11:12:49.572Z,21.63
2018-05-06T11:15:17.955Z,24.22
2018-05-06T11:17:46.394Z,22.13
2018-05-06T11:20:14.775Z,21.54
2018-05-06T11:22:43.185Z,22.79
2018-05-06T11:25:11.635Z,23.10
2018-05-06T11:27:40.042Z,20.42
2018-05-06T11:30:08.417Z,19.25
2018-05-06T11:32:37.054Z,18.63
2018-05-06T11:35:06.222Z,19.37
2018-05-06T11:37:34.644Z,21.73
2018-05-06T11:40:03.825Z,19.67
2018-05-06T11:42:32.233Z,20.20
2018-05-06T11:45:01.414Z,23.40
2018-05-06T11:47:29.833Z,19.60
2018-05-06T11:49:58.252Z,20.21
2018-05-06T11:52:26.727Z,19.18
2018-05-06T11:54:55.168Z,20.16
2018-05-06T11:57:24.566Z,23.77
2018-05-06T11:59:53.777Z,21.67
2018-05-06T12:02:22.975Z,19.70
2018-05-06T12:04:51.356Z,21.55
2018-05-06T12:07:19.746Z,20.28
2018-05-06T12:09:48.201Z,19.34
2018-05-06T12:12:16.581Z,19.07
2018-05-06T12:14:45.010Z,21.63
2018-05-06T12:17:14.176Z,19.44
2018-05-06T12:19:42.626Z,20.71
2018-05-06T12:22:11.054Z,21.86
2018-05-06T12:24:39.452Z,19.94
2018-05-06T12:27:08.802Z,19.92
2018-05-06T12:29:37.178Z,19.77
2018-05-06T12:32:05.605Z,19.60
2018-05-06T12:34:34.081Z,20.33
2018-05-06T12:37:02.496Z,20.53
2018-05-06T12:39:31.659Z,21.09
2018-05-06T12:42:00.069Z,21.39
2018-05-06T12:44:28.473Z,21.85
2018-05-06T12:46:57.650Z,22.40
2018-05-06T12:49:26.135Z,21.18
2018-05-06T12:51:54.494Z,20.28
2018-05-06T12:54:22.942Z,20.39
2018-05-06T12:56:51.328Z,19.40
2018-05-06T12:59:19.755Z,19.17
2018-05-06T13:01:48.159Z,19.46
2018-05-06T13:04:16.556Z,18.73
2018-05-06T13:06:45.730Z,17.82
2018-05-06T13:09:14.133Z,17.24
2018-05-06T13:11:43.325Z,19.18
2018-05-06T13:14:11.702Z,20.04
2018-05-06T13:16:40.192Z,17.62
2018-05-06T13:19:08.601Z,18.78
2018-05-06T13:21:37.006Z,18.06
2018-05-06T13:24:05.424Z,19.83
2018-05-06T13:26:33.852Z,18.88
2018-05-06T13:29:03.029Z,20.07
2018-05-06T13:31:31.405Z,19.06
2018-05-06T13:33:59.876Z,18.52
2018-05-06T13:36:28.287Z,18.98
2018-05-06T13:38:56.691Z,18.77
2018-05-06T13:41:25.862Z,18.77
2018-05-06T13:43:54.325Z,19.75
2018-05-06T13:46:23.431Z,19.83
2018-05-06T13:48:52.686Z,17.96
2018-05-06T13:51:21.145Z,18.88
2018-05-06T13:53:50.349Z,18.89
2018-05-06T13:56:19.537Z,18.79
2018-05-06T13:58:47.944Z,20.29
2018-05-06T14:01:17.105Z,19.91
2018-05-06T14:03:45.505Z,19.48
2018-05-06T14:06:13.933Z,18.37
2018-05-06T14:08:42.394Z,19.22
2018-05-06T14:11:11.587Z,19.20
2018-05-06T14:13:40.733Z,19.20
2018-05-06T14:16:09.135Z,18.20
2018-05-06T14:18:37.553Z,18.79
2018-05-06T14:21:05.959Z,18.53
2018-05-06T14:23:34.370Z,18.87
2018-05-06T14:26:02.788Z,17.96
2018-05-06T14:28:31.479Z,17.77
2018-05-06T14:30:59.893Z,16.42
2018-05-06T14:33:29.066Z,17.02
2018-05-06T14:35:57.528Z,17.27
2018-05-06T14:38:25.889Z,19.01
2018-05-06T14:40:54.282Z,15.84
2018-05-06T14:43:22.851Z,16.30
2018-05-06T14:45:51.242Z,18.10
2018-05-06T14:48:19.660Z,18.43
2018-05-06T14:50:48.860Z,17.12
2018-05-06T14:53:17.275Z,17.99
2018-05-06T14:55:46.894Z,17.87
2018-05-06T14:58:16.615Z,18.17
2018-05-06T15:00:45.142Z,16.62
2018-05-06T15:03:14.295Z,17.13
2018-05-06T15:05:43.449Z,18.32
2018-05-06T15:08:12.674Z,17.48
2018-05-06T15:10:42.133Z,18.13
2018-05-06T15:13:10.551Z,18.09
2018-05-06T15:15:39.558Z,18.36
2018-05-06T15:18:08.163Z,17.13
2018-05-06T15:20:36.547Z,18.11
2018-05-06T15:23:05.802Z,18.38
2018-05-06T15:25:34.194Z,17.85
2018-05-06T15:28:02.606Z,18.33
2018-05-06T15:30:31.012Z,18.30
2018-05-06T15:33:00.187Z,18.36
2018-05-06T15:35:28.612Z,17.75
2018-05-06T15:37:57.059Z,19.36
2018-05-06T15:40:25.477Z,18.62
2018-05-06T15:42:53.873Z,18.81
2018-05-06T15:45:22.386Z,20.55
2018-05-06T15:47:50.805Z,20.08
2018-05-06T15:50:19.977Z,20.89
2018-05-06T15:52:48.312Z,19.89
2018-05-06T15:55:16.719Z,21.15
2018-05-06T15:57:45.126Z,21.25
2018-05-06T16:00:13.564Z,21.13
2018-05-06T16:03:10.941Z,20.60
2018-05-06T16:05:39.325Z,21.57
2018-05-06T16:08:07.750Z,20.90
2018-05-06T16:10:36.157Z,20.41
2018-05-06T16:13:04.609Z,20.33
2018-05-06T16:15:32.977Z,21.72
2018-05-06T16:18:01.382Z,20.02
2018-05-06T16:20:29.816Z,19.87
2018-05-06T16:22:58.221Z,20.19
2018-05-06T16:25:27.420Z,20.04
2018-05-06T16:27:55.835Z,20.51
2018-05-06T16:30:24.572Z,20.77
2018-05-06T16:32:52.982Z,20.11
2018-05-06T16:35:21.388Z,20.47
2018-05-06T16:37:49.794Z,21.57
2018-05-06T16:40:18.805Z,22.19
2018-05-06T16:42:47.310Z,22.91
2018-05-06T16:45:15.736Z,24.01
2018-05-06T16:47:44.250Z,24.18
2018-05-06T16:50:13.739Z,24.44
2018-05-06T16:52:42.169Z,24.04
2018-05-06T16:55:10.637Z,23.72
2018-05-06T16:57:39.041Z,24.32
2018-05-06T17:00:08.472Z,23.88
2018-05-06T17:02:36.888Z,25.51
2018-05-06T17:05:05.326Z,25.12
2018-05-06T17:07:34.747Z,25.06
2018-05-06T17:10:03.137Z,26.33
2018-05-06T17:12:31.597Z,26.28
2018-05-06T17:15:00.112Z,25.65
2018-05-06T17:17:28.552Z,26.60
2018-05-06T17:19:56.963Z,26.19
2018-05-06T17:22:25.402Z,27.45
2018-05-06T17:25:06.216Z,26.28
2018-05-06T17:27:34.877Z,26.66
2018-05-06T17:30:03.291Z,27.13
2018-05-06T17:32:31.679Z,27.71
2018-05-06T17:35:05.359Z,27.84
2018-05-06T17:37:36.462Z,27.65
2018-05-06T17:40:05.674Z,27.34
2018-05-06T17:42:35.712Z,28.53
2018-05-06T17:45:05.526Z,28.00
2018-05-06T17:47:34.567Z,28.05
2018-05-06T17:50:03.074Z,28.27
2018-05-06T17:52:34.797Z,28.79
2018-05-06T17:55:03.360Z,29.93
2018-05-06T17:57:33.797Z,29.85
2018-05-06T18:00:02.198Z,29.55
2018-05-06T18:02:30.607Z,29.52
2018-05-06T18:04:59.003Z,29.73
2018-05-06T18:07:27.400Z,30.23
2018-05-06T18:09:56.585Z,29.75
2018-05-06T18:12:24.977Z,30.74
2018-05-06T18:14:53.347Z,30.61
2018-05-06T18:17:21.875Z,29.95
2018-05-06T18:19:50.297Z,30.32
2018-05-06T18:22:18.701Z,30.78
2018-05-06T18:24:47.080Z,30.31
2018-05-06T18:27:15.556Z,30.88
2018-05-06T18:29:43.966Z,31.29
2018-05-06T18:32:12.434Z,31.33
2018-05-06T18:34:40.755Z,31.42
2018-05-06T18:37:09.191Z,31.48
2018-05-06T18:39:38.422Z,31.92
2018-05-06T18:42:08.214Z,31.99
2018-05-06T18:44:36.644Z,32.54
2018-05-06T18:47:05.150Z,32.78
2018-05-06T18:49:34.289Z,33.84
2018-05-06T18:52:02.684Z,33.57
2018-05-06T18:54:31.116Z,34.23
2018-05-06T18:56:59.555Z,34.95
2018-05-06T18:59:28.367Z,34.66
2018-05-06T19:01:57.588Z,34.96
2018-05-06T19:04:26.957Z,34.73
2018-05-06T19:06:56.160Z,34.98
2018-05-06T19:09:25.346Z,36.27
2018-05-06T19:11:53.750Z,35.93
2018-05-06T19:14:22.315Z,35.69
2018-05-06T19:16:50.753Z,36.05
2018-05-06T19:19:19.231Z,36.11
2018-05-06T19:21:47.747Z,36.74
2018-05-06T19:24:16.157Z,36.23
2018-05-06T19:26:44.638Z,36.85
2018-05-06T19:29:13.004Z,36.33
2018-05-06T19:31:42.209Z,36.70
2018-05-06T19:34:10.644Z,37.34
2018-05-06T19:36:39.852Z,37.21
2018-05-06T19:39:08.349Z,37.12
2018-05-06T19:41:36.756Z,37.83
2018-05-06T19:44:05.183Z,38.05
2018-05-06T19:46:33.589Z,38.07
2018-05-06T19:49:02.142Z,38.34
2018-05-06T19:51:30.583Z,39.10
2018-05-06T19:53:59.026Z,38.36
2018-05-06T19:56:28.201Z,39.46
2018-05-06T19:58:56.600Z,39.56
2018-05-06T20:01:25.015Z,39.72
2018-05-06T20:03:53.427Z,39.74
2018-05-06T20:06:21.845Z,40.01
2018-05-06T20:08:50.464Z,40.46
2018-05-06T20:11:19.639Z,40.78
2018-05-06T20:13:48.037Z,41.91
2018-05-06T20:16:17.272Z,41.38
2018-05-06T20:18:45.691Z,41.31
2018-05-06T20:21:14.175Z,40.41
2018-05-06T20:23:43.349Z,41.03
2018-05-06T20:26:11.990Z,41.44
2018-05-06T20:28:40.409Z,41.47
2018-05-06T20:31:08.839Z,41.73
2018-05-06T20:33:37.250Z,41.26
2018-05-06T20:36:06.415Z,40.91
2018-05-06T20:38:34.843Z,41.38
2018-05-06T20:41:04.102Z,42.11
2018-05-06T20:43:32.503Z,42.58
2018-05-06T20:46:00.908Z,43.80
2018-05-06T20:48:30.098Z,43.98
2018-05-06T20:50:58.507Z,45.43
2018-05-06T20:53:26.915Z,46.25
2018-05-06T20:55:55.327Z,46.98
2018-05-06T20:58:23.750Z,46.43
2018-05-06T21:00:52.943Z,46.89
2018-05-06T21:03:22.126Z,47.14
2018-05-06T21:05:51.583Z,47.72
2018-05-06T21:08:20.011Z,48.37
2018-05-06T21:10:48.427Z,48.12
2018-05-06T21:13:18.463Z,48.67
2018-05-06T21:15:46.879Z,49.24
2018-05-06T21:18:15.372Z,50.11
2018-05-06T21:20:43.688Z,50.89
2018-05-06T21:23:12.290Z,51.54
2018-05-06T21:25:40.750Z,51.18
2018-05-06T21:28:10.039Z,52.01
2018-05-06T21:30:38.604Z,52.96
2018-05-06T21:33:07.697Z,52.39
2018-05-06T21:35:36.852Z,52.66
2018-05-06T21:38:05.303Z,53.30
2018-05-06T21:40:33.840Z,53.46
2018-05-06T21:43:03.232Z,54.41
2018-05-06T21:45:32.596Z,54.32
2018-05-06T21:48:01.014Z,55.82
2018-05-06T21:50:29.433Z,55.76
2018-05-06T21:52:57.854Z,56.48
2018-05-06T21:55:26.472Z,56.32
2018-05-06T21:57:55.670Z,57.32
2018-05-06T22:00:24.085Z,57.03
2018-05-06T22:02:52.461Z,57.70
2018-05-06T22:05:20.909Z,57.67
2018-05-06T22:07:49.302Z,58.79
2018-05-06T22:10:17.699Z,58.44
2018-05-06T22:12:46.896Z,58.95
2018-05-06T22:15:17.003Z,60.28
2018-05-06T22:17:45.421Z,60.04
2018-05-06T22:20:14.507Z,60.27
2018-05-06T22:22:43.072Z,60.37
2018-05-06T22:25:11.813Z,61.09
2018-05-06T22:27:40.227Z,61.37
2018-05-06T22:30:08.651Z,61.45
2018-05-06T22:32:37.869Z,61.46
2018-05-06T22:35:06.429Z,62.67
2018-05-06T22:37:35.953Z,63.01
2018-05-06T22:40:05.132Z,62.62
2018-05-06T22:42:33.534Z,62.63
2018-05-06T22:45:03.088Z,63.29
2018-05-06T22:47:31.542Z,63.26
2018-05-06T22:50:00.719Z,63.42
2018-05-06T22:52:30.247Z,63.50
2018-05-06T22:54:59.441Z,63.44
2018-05-06T22:57:28.671Z,63.84
2018-05-06T22:59:57.101Z,64.44
2018-05-06T23:02:25.630Z,64.87
2018-05-06T23:04:54.051Z,65.27
2018-05-06T23:07:22.432Z,65.81
2018-05-06T23:09:50.851Z,65.75
2018-05-06T23:12:20.000Z,65.72
2018-05-06T23:14:48.395Z,66.42
2018-05-06T23:17:16.822Z,66.66
2018-05-06T23:19:45.993Z,66.57
2018-05-06T23:22:14.446Z,66.96
2018-05-06T23:24:43.762Z,66.38
2018-05-06T23:27:12.238Z,66.47
2018-05-06T23:29:40.643Z,66.73
2018-05-06T23:32:09.028Z,67.08
2018-05-06T23:34:37.554Z,66.43
2018-05-06T23:37:06.715Z,66.51
2018-05-06T23:39:35.175Z,66.99
2018-05-06T23:42:03.576Z,66.89
2018-05-06T23:44:31.963Z,67.79
2018-05-06T23:47:00.386Z,68.06
2018-05-06T23:49:29.602Z,67.95
2018-05-06T23:51:57.975Z,68.38
2018-05-06T23:54:27.142Z,68.28
2018-05-06T23:56:55.550Z,68.16
2018-05-06T23:59:24.669Z,68.36
